Time;durP1;ratioP1;P1;durP2;ratioP2;P2;SDS_P1;SDS_P2;PMS_P1;PMS_P2;Temp;Humidity;BMP_temperature;BMP_pressure;BME280_temperature;BME280_humidity;BME280_pressure;Samples;Min_cycle;Max_cycle;Signal;HPM_P1;HPM_P2
2021/11/28 00:00:13;;;;;;;16.48;10.00;;;4.10;99.90;;;;;;5076185;28;20461;-67
2021/11/28 00:02:39;;;;;;;13.45;9.25;;;4.20;99.90;;;;;;5058341;28;20024;-67
2021/11/28 00:05:06;;;;;;;15.10;9.48;;;4.20;99.90;;;;;;5075983;28;20027;-68
2021/11/28 00:10:39;;;;;;;12.40;8.75;;;4.30;99.90;;;;;;5075900;28;20377;-67
2021/11/28 00:13:05;;;;;;;14.25;9.20;;;4.30;99.90;;;;;;5075756;28;20051;-68
2021/11/28 00:15:32;;;;;;;14.85;8.77;;;4.30;99.90;;;;;;5075935;28;20028;-67
2021/11/28 00:17:57;;;;;;;12.63;8.60;;;4.30;99.90;;;;;;5075919;28;20075;-68
2021/11/28 00:20:23;;;;;;;12.02;8.10;;;4.40;99.90;;;;;;5075590;28;20067;-68
2021/11/28 00:22:49;;;;;;;15.27;11.10;;;4.30;99.90;;;;;;5075775;28;20571;-68
2021/11/28 00:25:17;;;;;;;16.88;11.38;;;4.30;99.90;;;;;;5075704;28;20104;-68
2021/11/28 00:27:45;;;;;;;14.68;10.90;;;4.30;99.90;;;;;;5075778;28;20024;-68
2021/11/28 00:30:18;;;;;;;12.23;9.13;;;4.30;99.90;;;;;;5075544;28;20025;-68
2021/11/28 00:32:44;;;;;;;13.65;9.80;;;4.30;99.90;;;;;;5075706;28;20024;-68
2021/11/28 00:35:10;;;;;;;11.75;8.73;;;4.40;99.90;;;;;;5057571;28;20040;-67
2021/11/28 00:37:35;;;;;;;12.02;8.32;;;4.40;99.90;;;;;;5075767;28;20020;-67
2021/11/28 00:40:02;;;;;;;12.05;8.05;;;4.40;99.90;;;;;;5057506;28;20555;-67
2021/11/28 00:42:27;;;;;;;14.82;8.40;;;4.40;99.90;;;;;;5057719;28;20056;-67
2021/11/28 00:44:53;;;;;;;11.80;7.28;;;4.50;99.90;;;;;;5075451;28;20114;-68
2021/11/28 00:47:19;;;;;;;11.57;7.93;;;4.50;99.90;;;;;;5075484;28;20086;-68
2021/11/28 00:52:29;;;;;;;13.23;7.75;;;4.50;99.90;;;;;;5075183;28;20111;-68
2021/11/28 00:54:55;;;;;;;12.00;8.40;;;4.50;99.90;;;;;;5075258;28;20036;-68
2021/11/28 00:57:23;;;;;;;12.50;7.97;;;4.50;99.90;;;;;;5074967;28;20044;-68
2021/11/28 00:59:49;;;;;;;17.02;11.88;;;4.50;99.90;;;;;;5075195;28;20457;-68
2021/11/28 01:02:16;;;;;;;16.35;11.00;;;4.50;99.90;;;;;;5075131;28;20074;-67
2021/11/28 01:04:42;;;;;;;14.45;9.85;;;4.50;99.90;;;;;;5073777;28;20020;-68
2021/11/28 01:07:08;;;;;;;12.15;8.90;;;4.50;99.90;;;;;;5074984;28;20041;-68
2021/11/28 01:09:34;;;;;;;13.02;9.32;;;4.50;99.90;;;;;;5074955;28;20046;-68
2021/11/28 01:11:59;;;;;;;15.75;10.18;;;4.50;99.90;;;;;;5075043;28;20530;-68
2021/11/28 01:14:25;;;;;;;14.02;9.95;;;4.50;99.90;;;;;;5073642;28;20031;-68
2021/11/28 01:16:50;;;;;;;13.70;9.60;;;4.50;99.90;;;;;;5052966;28;20091;-68
2021/11/28 01:19:16;;;;;;;13.57;9.10;;;4.50;99.90;;;;;;5033680;28;20025;-68
2021/11/28 01:21:53;;;;;;;12.73;9.35;;;4.50;99.90;;;;;;5074590;28;20024;-68
2021/11/28 01:24:19;;;;;;;12.88;8.82;;;4.60;99.90;;;;;;5087283;28;20031;-68
2021/11/28 01:26:44;;;;;;;12.52;8.75;;;4.50;99.90;;;;;;5093739;28;20392;-68
2021/11/28 01:29:10;;;;;;;15.52;9.13;;;4.60;99.90;;;;;;5094736;28;20106;-68
2021/11/28 01:31:35;;;;;;;12.68;9.00;;;4.60;99.90;;;;;;5094718;28;20024;-68
2021/11/28 01:34:01;;;;;;;13.85;9.05;;;4.60;99.90;;;;;;5094649;28;20032;-68
2021/11/28 01:36:26;;;;;;;13.80;8.93;;;4.60;99.90;;;;;;5094892;28;20036;-68
2021/11/28 01:38:52;;;;;;;13.73;8.45;;;4.60;99.90;;;;;;5094799;28;20491;-68
2021/11/28 01:41:18;;;;;;;12.88;8.45;;;4.60;99.90;;;;;;5094620;28;20467;-68
2021/11/28 01:43:44;;;;;;;13.30;9.07;;;4.60;99.90;;;;;;5094619;28;20030;-68
2021/11/28 01:46:10;;;;;;;13.43;8.52;;;4.60;99.90;;;;;;5094477;28;20031;-68
2021/11/28 01:48:36;;;;;;;12.80;8.30;;;4.60;99.90;;;;;;5076482;28;20027;-68
2021/11/28 01:51:02;;;;;;;12.20;8.48;;;4.60;99.90;;;;;;5094373;28;20086;-68
2021/11/28 01:53:29;;;;;;;13.55;8.25;;;4.60;99.90;;;;;;5094307;28;20472;-68
2021/11/28 01:55:56;;;;;;;10.23;7.72;;;4.60;99.90;;;;;;5094490;28;20016;-68
2021/11/28 01:58:23;;;;;;;11.43;7.53;;;4.60;99.90;;;;;;5094313;28;20032;-68
2021/11/28 02:00:52;;;;;;;10.18;7.50;;;4.60;99.90;;;;;;5094197;28;20039;-67
2021/11/28 02:03:19;;;;;;;11.05;6.78;;;4.60;99.90;;;;;;5086552;28;20024;-68
2021/11/28 02:05:51;;;;;;;11.93;7.20;;;4.60;99.90;;;;;;5094229;28;20032;-68
2021/11/28 02:08:18;;;;;;;10.18;6.60;;;4.60;99.90;;;;;;5094053;28;20399;-68
2021/11/28 02:10:44;;;;;;;10.13;6.43;;;4.60;99.90;;;;;;5093382;28;20033;-68
2021/11/28 02:13:10;;;;;;;10.40;6.82;;;4.60;99.90;;;;;;5093951;28;20361;-68
2021/11/28 02:15:36;;;;;;;12.18;6.57;;;4.70;99.90;;;;;;5094007;28;20537;-68
2021/11/28 02:18:01;;;;;;;9.85;6.93;;;4.70;99.90;;;;;;5062996;28;20108;-68
2021/11/28 02:20:30;;;;;;;6.95;5.55;;;4.70;99.90;;;;;;5083391;28;20149;-68
2021/11/28 02:22:56;;;;;;;6.70;4.75;;;4.70;99.90;;;;;;5093741;28;20020;-67
2021/11/28 02:25:25;;;;;;;7.82;5.53;;;4.70;99.90;;;;;;5075558;28;20017;-68
2021/11/28 02:27:55;;;;;;;9.27;5.37;;;4.70;99.90;;;;;;5093890;28;20099;-68
2021/11/28 02:30:22;;;;;;;6.60;5.05;;;4.70;99.90;;;;;;5075497;28;20258;-68
2021/11/28 02:32:48;;;;;;;7.78;5.20;;;4.70;99.90;;;;;;5093773;28;20051;-68
2021/11/28 02:35:15;;;;;;;10.02;6.03;;;4.60;99.90;;;;;;5093630;28;20051;-68
2021/11/28 02:37:45;;;;;;;7.85;5.72;;;4.60;99.90;;;;;;5093531;28;20024;-68
2021/11/28 02:40:13;;;;;;;10.40;6.35;;;4.60;99.90;;;;;;5093409;28;20490;-68
2021/11/28 02:42:39;;;;;;;8.57;5.75;;;4.60;99.90;;;;;;5075356;28;20472;-68
2021/11/28 02:45:19;;;;;;;8.88;5.97;;;4.60;99.90;;;;;;5093428;28;20024;-67
2021/11/28 02:47:44;;;;;;;9.30;5.72;;;4.60;99.90;;;;;;5071048;28;20020;-68
2021/11/28 02:50:13;;;;;;;8.32;5.75;;;4.70;99.90;;;;;;5053023;28;20098;-68
2021/11/28 02:52:38;;;;;;;8.45;5.60;;;4.70;99.90;;;;;;5053740;28;20021;-68
2021/11/28 02:55:05;;;;;;;7.43;5.22;;;4.70;99.90;;;;;;5072906;28;20036;-68
2021/11/28 02:57:31;;;;;;;9.52;5.22;;;4.70;99.90;;;;;;5059742;28;20551;-68
2021/11/28 02:59:56;;;;;;;7.07;4.97;;;4.70;99.90;;;;;;5052981;28;20064;-68
2021/11/28 03:02:22;;;;;;;8.35;6.05;;;4.70;99.90;;;;;;5052967;28;20029;-68
2021/11/28 03:04:47;;;;;;;7.85;5.50;;;4.70;99.90;;;;;;5052856;28;20041;-68
2021/11/28 03:07:18;;;;;;;8.43;5.47;;;4.70;99.90;;;;;;5052704;28;20032;-68
2021/11/28 03:09:44;;;;;;;9.85;5.60;;;4.70;99.90;;;;;;5052658;28;20536;-68
2021/11/28 03:12:11;;;;;;;10.45;6.90;;;4.70;99.90;;;;;;5052650;28;20032;-68
2021/11/28 03:14:37;;;;;;;9.00;6.07;;;4.70;99.90;;;;;;5052777;28;20497;-68
2021/11/28 03:17:03;;;;;;;8.55;5.55;;;4.70;99.90;;;;;;5052724;28;20036;-68
2021/11/28 03:19:29;;;;;;;13.40;6.35;;;4.70;99.90;;;;;;5034781;28;20500;-68
2021/11/28 03:21:54;;;;;;;9.88;6.47;;;4.70;99.90;;;;;;5051560;28;20032;-67
2021/11/28 03:24:20;;;;;;;9.90;6.82;;;4.80;99.90;;;;;;5034672;28;20029;-68
2021/11/28 03:26:45;;;;;;;9.18;6.90;;;4.70;99.90;;;;;;5052620;28;20388;-67
2021/11/28 03:29:17;;;;;;;8.65;6.40;;;4.70;99.90;;;;;;5052675;28;20029;-67
2021/11/28 03:31:46;;;;;;;8.38;6.55;;;4.80;99.90;;;;;;5052437;28;20063;-67
2021/11/28 03:34:14;;;;;;;9.75;6.75;;;4.80;99.90;;;;;;5052465;28;20075;-67
2021/11/28 03:36:44;;;;;;;11.82;6.90;;;4.80;99.90;;;;;;5052552;28;20025;-68
2021/11/28 03:39:11;;;;;;;;;;;4.80;99.90;;;;;;5052722;28;20029;-68
2021/11/28 03:41:37;;;;;;;8.88;6.53;;;4.70;99.90;;;;;;5052452;28;19905;-68
2021/11/28 03:44:04;;;;;;;11.02;7.38;;;4.70;99.90;;;;;;5034666;28;20029;-68
2021/11/28 03:46:29;;;;;;;13.05;8.77;;;4.70;99.90;;;;;;5052365;28;20059;-68
2021/11/28 03:48:57;;;;;;;13.02;8.38;;;4.70;99.90;;;;;;5052901;28;20064;-68
2021/11/28 03:51:22;;;;;;;14.18;8.85;;;4.70;99.90;;;;;;5052375;28;20029;-68
2021/11/28 03:53:48;;;;;;;12.80;8.73;;;4.70;99.90;;;;;;5034557;28;20025;-68
2021/11/28 03:56:14;;;;;;;13.27;8.88;;;4.80;99.90;;;;;;5054575;28;20021;-68
2021/11/28 03:58:40;;;;;;;14.43;9.18;;;4.80;99.90;;;;;;5072282;28;20384;-68
2021/11/28 04:01:08;;;;;;;16.33;10.63;;;4.80;99.90;;;;;;5072349;28;20020;-67
2021/11/28 04:03:34;;;;;;;17.00;10.50;;;4.80;99.90;;;;;;5071922;28;20086;-68
2021/11/28 04:06:00;;;;;;;14.68;9.63;;;4.80;99.90;;;;;;5072253;28;20040;-68
2021/11/28 04:08:25;;;;;;;17.25;11.05;;;4.80;99.90;;;;;;5054475;28;20083;-68
2021/11/28 04:10:52;;;;;;;15.75;10.27;;;4.80;99.90;;;;;;5071960;28;20025;-67
2021/11/28 04:13:17;;;;;;;15.63;10.30;;;4.80;99.90;;;;;;5072243;28;20059;-68
2021/11/28 04:15:44;;;;;;;17.02;11.32;;;4.80;99.90;;;;;;5072219;28;20033;-68
2021/11/28 04:18:09;;;;;;;16.63;10.25;;;4.80;99.90;;;;;;5072060;28;20025;-68
2021/11/28 04:20:35;;;;;;;20.50;11.63;;;4.80;99.90;;;;;;5072107;28;20082;-67
2021/11/28 04:23:02;;;;;;;16.85;11.48;;;4.80;99.90;;;;;;5054068;28;20107;-68
2021/11/28 04:25:28;;;;;;;20.38;12.80;;;4.80;99.90;;;;;;5072042;28;20029;-68
2021/11/28 04:27:54;;;;;;;19.67;13.75;;;4.80;99.90;;;;;;5054167;28;20052;-67
2021/11/28 04:30:19;;;;;;;18.00;11.48;;;4.70;99.90;;;;;;5072143;28;20024;-68
2021/11/28 04:32:45;;;;;;;17.73;11.00;;;4.70;99.90;;;;;;5073307;28;20029;-67
2021/11/28 04:35:11;;;;;;;15.98;10.73;;;4.70;99.90;;;;;;5075684;28;20034;-68
2021/11/28 04:37:37;;;;;;;17.00;9.98;;;4.70;99.90;;;;;;5075614;28;20021;-68
2021/11/28 04:40:05;;;;;;;15.77;10.40;;;4.70;99.90;;;;;;5075654;28;20036;-67
2021/11/28 04:42:30;;;;;;;16.55;10.50;;;4.80;99.90;;;;;;5075286;28;20112;-67
2021/11/28 04:44:56;;;;;;;15.93;9.80;;;4.80;99.90;;;;;;5057851;28;20178;-67
2021/11/28 04:47:22;;;;;;;15.95;10.18;;;4.80;99.90;;;;;;5075464;28;20020;-67
2021/11/28 04:49:48;;;;;;;18.52;11.07;;;4.80;99.90;;;;;;5075433;28;20039;-68
2021/11/28 04:52:14;;;;;;;17.40;10.80;;;4.80;99.90;;;;;;5075281;28;20028;-67
2021/11/28 04:54:40;;;;;;;15.68;10.63;;;4.80;99.90;;;;;;5075250;28;20067;-67
2021/11/28 04:57:06;;;;;;;17.08;11.23;;;4.80;99.90;;;;;;5074960;28;20047;-68
2021/11/28 04:59:32;;;;;;;16.05;11.30;;;4.80;99.90;;;;;;5075351;28;20013;-67
2021/11/28 05:01:57;;;;;;;20.63;11.38;;;4.70;99.90;;;;;;5057136;28;20123;-68
2021/11/28 05:04:23;;;;;;;15.93;10.35;;;4.70;99.90;;;;;;5057221;28;20017;-68
2021/11/28 05:06:49;;;;;;;17.92;10.57;;;4.70;99.90;;;;;;5075139;28;20025;-67
2021/11/28 05:09:15;;;;;;;17.17;11.23;;;4.80;99.90;;;;;;5057210;28;20027;-68
2021/11/28 05:11:40;;;;;;;16.15;10.75;;;4.70;99.90;;;;;;5056705;28;20048;-67
2021/11/28 05:14:06;;;;;;;16.17;10.48;;;4.70;99.90;;;;;;5074950;28;20024;-67
2021/11/28 05:16:33;;;;;;;20.45;12.65;;;4.70;99.90;;;;;;5074734;28;20031;-68
2021/11/28 05:18:58;;;;;;;19.80;12.43;;;4.70;99.90;;;;;;5074981;28;20024;-68
2021/11/28 05:21:24;;;;;;;19.90;11.73;;;4.70;99.90;;;;;;5074931;28;20035;-68
2021/11/28 05:23:49;;;;;;;18.85;12.35;;;4.70;99.90;;;;;;5074701;28;20444;-67
2021/11/28 05:26:15;;;;;;;21.52;12.90;;;4.70;99.90;;;;;;5074995;28;20107;-67
2021/11/28 05:28:41;;;;;;;17.02;11.13;;;4.70;99.90;;;;;;5074087;28;20103;-68
2021/11/28 05:31:06;;;;;;;18.23;11.45;;;4.70;99.90;;;;;;5074192;28;20106;-68
2021/11/28 05:33:32;;;;;;;18.35;11.88;;;4.70;99.90;;;;;;5056116;28;20166;-67
2021/11/28 05:35:58;;;;;;;16.98;11.85;;;4.70;99.90;;;;;;5074745;28;20111;-68
2021/11/28 05:38:23;;;;;;;20.90;12.95;;;4.70;99.90;;;;;;5074565;28;20425;-68
2021/11/28 05:40:49;;;;;;;22.80;13.80;;;4.70;99.90;;;;;;5056517;28;20032;-68
2021/11/28 05:43:15;;;;;;;20.30;13.05;;;4.60;99.90;;;;;;5073922;28;20115;-67
2021/11/28 05:45:40;;;;;;;18.10;11.82;;;4.60;99.90;;;;;;5055673;28;20111;-67
2021/11/28 05:48:06;;;;;;;20.58;12.30;;;4.60;99.90;;;;;;5074453;28;20381;-68
2021/11/28 05:50:32;;;;;;;18.42;12.07;;;4.60;99.90;;;;;;5074249;28;20380;-67
2021/11/28 05:52:58;;;;;;;18.25;11.52;;;4.60;99.90;;;;;;5056162;28;20059;-68
2021/11/28 05:55:24;;;;;;;18.98;11.68;;;4.60;99.90;;;;;;5074302;28;20027;-67
2021/11/28 05:57:50;;;;;;;17.20;11.20;;;4.70;99.90;;;;;;5055744;28;20499;-67
2021/11/28 06:00:19;;;;;;;20.42;12.10;;;4.70;99.90;;;;;;5056209;28;20032;-68
2021/11/28 06:02:44;;;;;;;19.90;12.27;;;4.60;99.90;;;;;;5073891;28;20051;-67
2021/11/28 06:05:10;;;;;;;18.67;11.63;;;4.60;99.90;;;;;;5056183;28;20020;-68
2021/11/28 06:07:37;;;;;;;17.70;11.40;;;4.60;99.90;;;;;;5055909;28;20028;-67
2021/11/28 06:10:04;;;;;;;19.20;12.63;;;4.60;99.90;;;;;;5074018;28;20511;-67
2021/11/28 06:12:29;;;;;;;21.20;12.82;;;4.50;99.90;;;;;;5073488;28;20064;-67
2021/11/28 06:14:55;;;;;;;20.55;12.60;;;4.50;99.90;;;;;;5073795;28;20059;-67
2021/11/28 06:17:21;;;;;;;21.05;12.95;;;4.50;99.90;;;;;;5073691;28;20028;-67
2021/11/28 06:19:47;;;;;;;23.85;13.68;;;4.60;99.90;;;;;;5073748;28;20021;-67
2021/11/28 06:22:13;;;;;;;21.98;13.25;;;4.50;99.90;;;;;;5073696;28;20039;-67
2021/11/28 06:24:38;;;;;;;21.65;14.48;;;4.50;99.90;;;;;;5073451;28;20071;-68
2021/11/28 06:27:07;;;;;;;19.98;12.38;;;4.50;99.90;;;;;;5073707;28;20020;-67
2021/11/28 06:29:35;;;;;;;22.70;14.23;;;4.50;99.90;;;;;;5073331;28;20029;-67
2021/11/28 06:32:01;;;;;;;23.63;14.07;;;4.40;99.90;;;;;;5073500;28;20325;-67
2021/11/28 06:34:27;;;;;;;22.55;13.40;;;4.40;99.90;;;;;;5073227;28;20388;-67
2021/11/28 06:36:54;;;;;;;19.98;12.32;;;4.40;99.90;;;;;;5055558;28;20024;-67
2021/11/28 06:39:20;;;;;;;21.70;13.05;;;4.40;99.90;;;;;;5073426;28;20491;-67
2021/11/28 06:41:45;;;;;;;21.00;12.70;;;4.40;99.90;;;;;;5072735;28;20024;-67
2021/11/28 06:44:11;;;;;;;19.15;12.68;;;4.30;99.90;;;;;;5072531;28;20491;-68
2021/11/28 06:46:36;;;;;;;21.80;12.98;;;4.30;99.90;;;;;;5072595;28;20036;-67
2021/11/28 06:49:02;;;;;;;20.83;12.95;;;4.30;99.90;;;;;;5072732;28;20520;-68
2021/11/28 06:51:28;;;;;;;20.02;12.82;;;4.30;99.90;;;;;;5073054;28;20564;-67
2021/11/28 06:53:53;;;;;;;20.10;12.38;;;4.20;99.90;;;;;;5072929;28;20051;-67
2021/11/28 06:56:19;;;;;;;20.00;13.23;;;4.20;99.90;;;;;;5072661;28;20464;-67
2021/11/28 06:58:44;;;;;;;19.88;12.70;;;4.20;99.90;;;;;;5071611;28;20076;-68
2021/11/28 07:01:10;;;;;;;20.15;12.70;;;4.30;99.90;;;;;;5072572;28;20028;-68
2021/11/28 07:10:39;;;;;;;18.98;11.90;;;4.20;99.90;;;;;;4979461;28;20418;-67
2021/11/28 07:13:06;;;;;;;19.42;11.68;;;4.20;99.90;;;;;;4976268;28;20467;-67
2021/11/28 07:15:31;;;;;;;21.05;12.63;;;4.20;99.90;;;;;;5054670;28;20028;-67
2021/11/28 07:18:09;;;;;;;19.83;12.45;;;4.20;99.90;;;;;;5067102;28;20023;-67
2021/11/28 07:20:35;;;;;;;21.08;12.93;;;4.20;99.90;;;;;;5069962;28;20426;-67
2021/11/28 07:23:02;;;;;;;20.17;12.60;;;4.20;99.90;;;;;;5070458;28;20025;-68
2021/11/28 07:25:28;;;;;;;24.45;14.27;;;4.20;99.90;;;;;;5070751;28;20043;-67
2021/11/28 07:27:55;;;;;;;22.05;13.27;;;4.20;99.90;;;;;;5071022;28;20031;-67
2021/11/28 07:30:22;;;;;;;22.92;13.27;;;4.20;99.90;;;;;;5070943;28;20448;-67
2021/11/28 07:32:48;;;;;;;21.92;12.73;;;4.20;99.90;;;;;;5070548;28;20020;-67
2021/11/28 07:35:14;;;;;;;21.95;12.98;;;4.20;99.90;;;;;;5052582;28;20027;-67
2021/11/28 07:37:39;;;;;;;21.33;12.85;;;4.20;99.90;;;;;;5050852;28;20047;-67
2021/11/28 07:40:05;;;;;;;21.27;12.70;;;4.20;99.90;;;;;;5069545;28;20035;-67
2021/11/28 07:42:31;;;;;;;19.30;12.23;;;4.10;99.90;;;;;;5049277;28;20069;-67
2021/11/28 07:45:33;;;;;;;;;;;;;;;;;;;;;
2021/11/28 07:48:12;;;;;;;25.02;13.57;;;4.20;99.90;;;;;;5047984;28;20027;-67
2021/11/28 07:50:45;;;;;;;25.23;14.57;;;4.10;99.90;;;;;;5066237;28;20028;-67
2021/11/28 07:53:55;;;;;;;23.45;13.27;;;4.10;99.90;;;;;;5066719;28;20023;-67
2021/11/28 08:00:06;;;;;;;31.15;16.60;;;4.10;99.90;;;;;;4997393;28;20066;-67
2021/11/28 08:02:32;;;;;;;32.42;17.10;;;4.10;99.90;;;;;;5068192;28;20029;-67
2021/11/28 08:04:58;;;;;;;32.97;17.17;;;4.10;99.90;;;;;;5040595;28;20025;-67
2021/11/28 08:07:23;;;;;;;27.58;15.10;;;4.10;99.90;;;;;;5071319;28;20174;-67
2021/11/28 08:10:32;;;;;;;;;;;;;;;;;;;;;
2021/11/28 08:16:27;;;;;;;26.25;14.30;;;4.20;99.90;;;;;;5027628;28;20021;-67
2021/11/28 08:22:18;;;;;;;27.75;14.43;;;4.10;99.90;;;;;;5074355;28;20197;-66
2021/11/28 08:24:43;;;;;;;26.95;14.32;;;4.10;99.90;;;;;;5063241;28;20045;-66
2021/11/28 08:27:09;;;;;;;30.90;16.17;;;4.10;99.90;;;;;;5070628;28;20495;-66
2021/11/28 08:29:36;;;;;;;40.13;20.63;;;4.10;99.90;;;;;;5073357;28;20113;-67
2021/11/28 08:32:01;;;;;;;42.67;21.95;;;4.10;99.90;;;;;;5070655;28;20021;-67
2021/11/28 08:34:27;;;;;;;34.83;18.88;;;4.10;99.90;;;;;;5075233;28;20030;-66
2021/11/28 08:36:53;;;;;;;37.08;19.60;;;4.20;99.90;;;;;;5074460;28;20353;-66
2021/11/28 08:39:19;;;;;;;32.72;17.55;;;4.10;99.90;;;;;;5057766;28;20029;-66
2021/11/28 08:41:44;;;;;;;34.65;17.38;;;4.10;99.90;;;;;;5068224;28;20136;-66
2021/11/28 08:44:10;;;;;;;40.15;19.92;;;4.20;99.90;;;;;;5055549;28;20393;-66
2021/11/28 08:46:43;;;;;;;34.95;18.58;;;4.20;99.90;;;;;;5055159;28;20029;-66
2021/11/28 08:49:09;;;;;;;33.47;18.48;;;4.20;99.90;;;;;;5048642;28;20044;-66
2021/11/28 08:51:35;;;;;;;30.95;15.93;;;4.30;99.90;;;;;;5056699;28;20024;-66
2021/11/28 08:54:01;;;;;;;30.48;15.93;;;4.30;99.90;;;;;;5075055;28;20021;-67
2021/11/28 08:56:27;;;;;;;28.15;15.57;;;4.30;99.90;;;;;;5075168;28;20051;-66
2021/11/28 08:58:53;;;;;;;27.75;15.27;;;4.40;99.90;;;;;;5067983;28;20421;-66
2021/11/28 09:01:18;;;;;;;26.75;13.93;;;4.50;99.90;;;;;;5034420;28;20035;-66
2021/11/28 09:04:02;;;;;;;23.83;13.75;;;4.50;99.90;;;;;;5036518;28;20037;-66
2021/11/28 09:06:28;;;;;;;23.30;12.73;;;4.70;99.90;;;;;;5018577;28;20041;-66
2021/11/28 09:08:53;;;;;;;20.35;11.60;;;4.70;99.90;;;;;;5047717;28;20036;-66
2021/11/28 09:11:19;;;;;;;23.02;12.85;;;4.70;99.90;;;;;;5050719;28;20037;-66
2021/11/28 09:13:55;;;;;;;18.77;11.63;;;4.80;99.90;;;;;;5035908;28;20511;-66
2021/11/28 09:16:21;;;;;;;22.05;12.48;;;4.80;99.90;;;;;;5014110;28;20025;-66
2021/11/28 09:18:57;;;;;;;31.63;16.20;;;4.90;99.90;;;;;;5028629;28;20024;-67
2021/11/28 09:21:23;;;;;;;24.70;14.82;;;4.90;99.90;;;;;;5046320;28;20021;-67
2021/11/28 09:26:33;;;;;;;24.20;14.43;;;4.90;99.90;;;;;;5052115;28;20457;-67
2021/11/28 09:29:01;;;;;;;24.10;14.57;;;4.90;99.90;;;;;;5036273;28;20548;-67
2021/11/28 09:31:27;;;;;;;23.08;12.95;;;5.00;99.90;;;;;;5037628;28;20097;-67
2021/11/28 09:33:53;;;;;;;27.05;14.48;;;5.00;99.90;;;;;;5053556;28;20532;-67
2021/11/28 09:36:18;;;;;;;23.55;14.18;;;4.90;99.90;;;;;;5052425;28;20115;-66
2021/11/28 09:38:44;;;;;;;23.40;13.80;;;5.00;99.90;;;;;;5053966;28;20021;-67
2021/11/28 09:41:11;;;;;;;21.05;12.80;;;5.00;99.90;;;;;;5053007;28;20374;-67
2021/11/28 09:43:41;;;;;;;21.17;11.88;;;5.10;99.90;;;;;;5053580;28;20055;-66
2021/11/28 09:46:08;;;;;;;19.70;11.60;;;5.20;99.90;;;;;;5035138;28;20025;-67
2021/11/28 09:48:35;;;;;;;21.50;12.77;;;5.30;99.90;;;;;;5053313;28;20388;-67
2021/11/28 09:51:04;;;;;;;19.40;11.65;;;5.50;99.90;;;;;;5053588;28;20021;-67
2021/11/28 09:53:35;;;;;;;21.20;12.23;;;5.60;99.90;;;;;;5053196;28;20017;-67
2021/11/28 09:56:01;;;;;;;19.38;11.25;;;5.80;99.90;;;;;;5035370;28;20013;-67
2021/11/28 09:58:28;;;;;;;25.65;14.00;;;6.00;99.90;;;;;;5056929;28;20147;-67
2021/11/28 10:00:56;;;;;;;23.88;13.75;;;6.20;99.90;;;;;;5073633;28;20067;-67
2021/11/28 10:03:22;;;;;;;24.20;14.88;;;6.40;99.90;;;;;;5066419;28;20100;-67
2021/11/28 10:05:51;;;;;;;24.02;14.68;;;6.70;99.90;;;;;;5066754;28;20537;-66
2021/11/28 10:08:19;;;;;;;19.77;12.98;;;7.10;99.90;;;;;;5047687;28;20039;-67
2021/11/28 10:11:51;;;;;;;26.30;16.50;;;7.60;99.90;;;;;;5070243;28;20476;-66
2021/11/28 10:15:01;;;;;;;28.17;15.95;;;7.80;99.90;;;;;;5045548;28;20111;-67
2021/11/28 10:17:29;;;;;;;27.45;17.23;;;7.80;99.90;;;;;;5060889;28;20496;-66
2021/11/28 10:19:57;;;;;;;23.08;14.93;;;8.00;99.90;;;;;;5071489;28;20066;-67
2021/11/28 10:22:23;;;;;;;21.25;14.07;;;8.50;99.90;;;;;;5051548;28;20035;-67
2021/11/28 10:24:50;;;;;;;21.73;14.02;;;8.90;99.90;;;;;;5055019;28;20027;-67
2021/11/28 10:27:16;;;;;;;17.55;12.27;;;9.40;99.90;;;;;;5068466;28;20032;-67
2021/11/28 10:33:24;;;;;;;17.67;12.70;;;9.90;99.40;;;;;;4990874;28;20026;-66
2021/11/28 10:36:05;;;;;;;20.30;12.93;;;9.70;99.00;;;;;;5030723;28;20032;-67
2021/11/28 10:38:51;;;;;;;17.75;12.55;;;9.60;99.20;;;;;;5075257;28;20035;-66
2021/11/28 10:41:27;;;;;;;19.60;13.38;;;9.50;99.10;;;;;;5089620;28;20021;-67
2021/11/28 10:43:54;;;;;;;24.35;15.98;;;9.20;99.00;;;;;;5051629;28;20562;-67
2021/11/28 10:46:32;;;;;;;20.25;13.90;;;8.90;99.00;;;;;;5070812;28;20024;-67
2021/11/28 10:49:09;;;;;;;18.42;13.23;;;8.70;99.10;;;;;;5066220;28;20428;-67
2021/11/28 10:51:37;;;;;;;19.02;12.35;;;8.40;99.20;;;;;;5066538;28;20020;-67
2021/11/28 10:54:33;;;;;;;16.98;11.55;;;8.30;99.30;;;;;;5076380;28;20032;-66
2021/11/28 10:57:08;;;;;;;17.42;11.63;;;8.10;99.30;;;;;;5054609;28;20021;-66
2021/11/28 11:00:06;;;;;;;;;;;;;;;;;;;;;
2021/11/28 11:02:33;;;;;;;15.32;10.93;;;7.70;99.60;;;;;;5066295;28;20032;-67
2021/11/28 11:05:00;;;;;;;16.92;11.30;;;7.40;99.90;;;;;;5069089;28;20025;-66
2021/11/28 11:07:27;;;;;;;17.20;11.90;;;7.40;99.90;;;;;;5056089;28;20545;-67
2021/11/28 11:10:29;;;;;;;19.05;11.82;;;7.30;99.90;;;;;;5072668;28;20024;-66
2021/11/28 11:12:55;;;;;;;17.33;11.65;;;7.30;99.90;;;;;;5071436;28;20107;-67
2021/11/28 11:15:58;;;;;;;18.52;12.75;;;7.10;99.90;;;;;;5052299;28;20214;-67
2021/11/28 11:18:28;;;;;;;18.42;11.68;;;7.10;99.90;;;;;;5070069;28;20104;-66
2021/11/28 11:21:36;;;;;;;;;;;;;;;;;;;;;
2021/11/28 11:23:52;;;;;;;17.08;11.13;;;6.90;99.90;;;;;;5055394;28;19935;-66
2021/11/28 11:26:24;;;;;;;19.17;12.32;;;6.70;99.90;;;;;;5046726;28;20112;-66
2021/11/28 11:29:38;;;;;;;18.83;12.70;;;6.70;99.90;;;;;;5040223;28;20111;-67
2021/11/28 11:32:08;;;;;;;21.42;13.85;;;6.70;99.90;;;;;;5058597;28;20407;-67
2021/11/28 11:34:57;;;;;;;18.60;12.95;;;6.70;99.90;;;;;;5052531;28;20021;-66
2021/11/28 11:37:25;;;;;;;18.15;12.45;;;6.70;99.90;;;;;;5062649;28;20111;-67
2021/11/28 11:40:25;;;;;;;18.95;13.35;;;6.80;99.90;;;;;;5053131;28;20016;-66
2021/11/28 11:42:54;;;;;;;;;;;7.10;99.90;;;;;;5068955;28;20020;-67
2021/11/28 11:45:25;;;;;;;20.08;13.02;;;7.20;99.90;;;;;;5056455;28;19962;-66
2021/11/28 11:48:25;;;;;;;21.30;13.93;;;7.30;99.90;;;;;;5072359;28;20469;-66
2021/11/28 11:50:54;;;;;;;20.85;13.68;;;7.50;99.90;;;;;;5049012;28;20025;-66
2021/11/28 11:53:19;;;;;;;22.17;15.02;;;7.50;99.70;;;;;;5055799;28;20490;-66
2021/11/28 11:55:47;;;;;;;19.90;13.43;;;7.50;99.60;;;;;;5073193;28;20103;-66
2021/11/28 11:58:31;;;;;;;19.27;13.25;;;7.50;99.60;;;;;;5071202;28;20539;-67
2021/11/28 12:01:07;;;;;;;19.17;12.63;;;7.50;99.60;;;;;;5069851;28;20099;-66
2021/11/28 12:03:51;;;;;;;16.92;11.38;;;7.40;99.70;;;;;;5072324;28;20098;-66
2021/11/28 12:06:18;;;;;;;18.25;11.95;;;7.30;99.80;;;;;;5051549;28;20349;-66
2021/11/28 12:08:51;;;;;;;17.45;11.15;;;7.20;99.90;;;;;;5075300;28;20028;-67
2021/11/28 12:11:22;;;;;;;19.20;12.00;;;7.20;99.90;;;;;;5073256;28;20029;-67
2021/11/28 12:13:53;;;;;;;19.33;12.90;;;7.20;99.90;;;;;;5071638;28;20016;-66
2021/11/28 12:16:20;;;;;;;16.90;10.77;;;7.10;99.90;;;;;;5074774;28;20029;-66
2021/11/28 12:18:52;;;;;;;16.25;10.73;;;7.10;99.90;;;;;;5075585;28;20078;-66
2021/11/28 12:21:41;;;;;;;14.18;8.93;;;7.20;99.90;;;;;;5074730;28;20021;-67
2021/11/28 12:24:11;;;;;;;13.48;8.70;;;7.20;99.90;;;;;;5047409;28;20031;-66
2021/11/28 12:26:38;;;;;;;;;;;7.20;99.90;;;;;;5075096;28;20503;-67
2021/11/28 12:29:15;;;;;;;11.05;7.15;;;7.20;99.90;;;;;;5075239;28;19904;-66
2021/11/28 12:31:45;;;;;;;10.07;5.90;;;7.20;99.90;;;;;;5073246;28;20563;-66
2021/11/28 12:34:13;;;;;;;7.85;5.35;;;7.20;99.90;;;;;;5069574;28;20074;-67
2021/11/28 12:36:43;;;;;;;7.00;4.60;;;7.20;99.90;;;;;;5066371;28;20037;-67
2021/11/28 12:39:31;;;;;;;5.85;3.67;;;7.20;99.90;;;;;;5068919;28;20020;-66
2021/11/28 12:42:28;;;;;;;4.50;3.00;;;7.30;99.90;;;;;;5049653;28;20121;-66
2021/11/28 12:44:56;;;;;;;3.60;2.38;;;7.30;99.90;;;;;;5069198;28;20043;-67
2021/11/28 12:47:24;;;;;;;2.97;1.60;;;7.20;99.90;;;;;;5073002;28;20372;-66
2021/11/28 12:49:58;;;;;;;2.17;1.33;;;7.20;99.90;;;;;;5072511;28;20047;-67
2021/11/28 12:52:23;;;;;;;2.17;1.25;;;7.20;99.90;;;;;;5071254;28;20044;-66
2021/11/28 12:55:43;;;;;;;;;;;;;;;;;;;;;
2021/11/28 12:58:09;;;;;;;1.83;1.52;;;7.10;99.80;;;;;;5072521;28;20016;-66
2021/11/28 13:00:49;;;;;;;1.67;0.90;;;7.00;99.90;;;;;;5074350;28;20112;-66
2021/11/28 13:03:14;;;;;;;;;;;7.00;99.80;;;;;;5068864;28;20519;-66
2021/11/28 13:05:46;;;;;;;0.65;0.43;;;7.00;99.70;;;;;;5069845;28;20332;-66
2021/11/28 13:08:12;;;;;;;1.67;0.75;;;6.90;99.80;;;;;;5054226;28;20123;-67
2021/11/28 13:10:50;;;;;;;1.25;0.75;;;7.00;99.70;;;;;;5070082;28;20384;-66
2021/11/28 13:13:37;;;;;;;1.08;0.80;;;7.00;99.60;;;;;;5072462;28;20032;-67
2021/11/28 13:16:17;;;;;;;0.88;0.50;;;7.00;99.50;;;;;;5052181;28;20468;-67
2021/11/28 13:18:48;;;;;;;1.30;0.98;;;7.00;99.50;;;;;;5073949;28;20017;-64
2021/11/28 13:21:26;;;;;;;2.67;1.58;;;6.90;99.40;;;;;;5067741;28;20032;-66
2021/11/28 13:23:55;;;;;;;2.60;1.63;;;6.90;99.30;;;;;;5068579;28;20063;-66
2021/11/28 13:26:26;;;;;;;1.53;1.27;;;6.90;99.30;;;;;;5070193;28;20020;-66
2021/11/28 13:28:57;;;;;;;1.20;1.05;;;7.00;99.30;;;;;;5054396;28;20323;-66